Time;durP1;ratioP1;P1;durP2;ratioP2;P2;SDS_P1;SDS_P2;PMS_P1;PMS_P2;Temp;Humidity;BMP_temperature;BMP_pressure;BME280_temperature;BME280_humidity;BME280_pressure;Samples;Min_cycle;Max_cycle;Signal;HPM_P1;HPM_P2
2021/10/30 00:00:06;;;;;;;0.30;0.20;;;12.20;1.00;;;;;;5033922;28;20224;-67
2021/10/30 00:02:32;;;;;;;0.30;0.20;;;12.20;1.00;;;;;;5033950;28;20603;-67
2021/10/30 00:04:57;;;;;;;0.30;0.20;;;12.30;1.00;;;;;;5034973;28;20196;-67
2021/10/30 00:07:23;;;;;;;0.30;0.20;;;12.30;1.00;;;;;;5034883;28;20196;-67
2021/10/30 00:09:48;;;;;;;0.30;0.20;;;12.30;1.00;;;;;;5034671;28;20178;-67
2021/10/30 00:12:14;;;;;;;0.30;0.20;;;12.30;1.00;;;;;;5034868;28;20196;-67
2021/10/30 00:14:43;;;;;;;0.30;0.20;;;12.40;1.00;;;;;;5034610;28;20236;-67
2021/10/30 00:17:12;;;;;;;0.55;0.50;;;12.50;1.00;;;;;;5034044;28;20637;-67
2021/10/30 00:19:38;;;;;;;0.30;0.10;;;12.50;1.00;;;;;;5034552;28;20187;-67
2021/10/30 00:22:04;;;;;;;0.30;0.20;;;12.30;1.00;;;;;;5034656;28;20174;-67
2021/10/30 00:24:32;;;;;;;0.40;0.30;;;12.20;1.00;;;;;;5034641;28;20215;-67
2021/10/30 00:26:58;;;;;;;0.40;0.30;;;12.00;1.00;;;;;;5034537;28;20186;-67
2021/10/30 00:29:23;;;;;;;0.30;0.20;;;12.00;1.00;;;;;;5034268;28;20242;-67
2021/10/30 00:31:49;;;;;;;0.30;0.20;;;12.10;1.00;;;;;;5034588;28;20256;-67
2021/10/30 00:34:14;;;;;;;0.30;0.20;;;11.90;1.00;;;;;;5033510;28;20548;-67
2021/10/30 00:36:40;;;;;;;0.30;0.20;;;11.90;1.00;;;;;;5034405;28;20181;-67
2021/10/30 00:39:06;;;;;;;0.30;0.20;;;12.10;1.00;;;;;;5034266;28;20169;-67
2021/10/30 00:41:31;;;;;;;0.30;0.20;;;12.00;1.00;;;;;;5034426;28;20177;-67
2021/10/30 00:44:05;;;;;;;0.73;0.73;;;12.10;1.00;;;;;;5034279;28;20178;-67
2021/10/30 00:46:30;;;;;;;0.30;0.20;;;12.10;1.00;;;;;;5034276;28;20256;-67
2021/10/30 00:48:56;;;;;;;0.30;0.20;;;12.10;1.00;;;;;;5033873;28;20273;-67
2021/10/30 00:51:21;;;;;;;0.30;0.20;;;12.10;1.00;;;;;;5034184;28;20224;-67
2021/10/30 00:53:47;;;;;;;0.40;0.30;;;12.00;1.00;;;;;;5033128;28;20177;-67
2021/10/30 00:56:14;;;;;;;0.30;0.20;;;11.80;1.00;;;;;;5033166;28;20231;-67
2021/10/30 00:58:40;;;;;;;0.30;0.10;;;11.90;6.30;;;;;;5032758;28;20177;-67
2021/10/30 01:01:06;;;;;;;0.30;0.20;;;11.90;11.60;;;;;;5033898;28;20166;-67
2021/10/30 01:03:33;;;;;;;0.30;0.30;;;12.00;3.20;;;;;;5033834;28;20178;-67
2021/10/30 01:06:00;;;;;;;0.30;0.20;;;12.10;1.00;;;;;;5033823;28;20224;-67
2021/10/30 01:08:25;;;;;;;0.38;0.25;;;12.00;1.00;;;;;;5033652;28;20193;-67
2021/10/30 01:10:52;;;;;;;0.30;0.20;;;12.10;1.00;;;;;;5033011;28;20181;-67
2021/10/30 01:13:18;;;;;;;0.77;0.57;;;12.10;1.00;;;;;;5033616;28;20189;-67
2021/10/30 01:15:43;;;;;;;0.30;0.20;;;12.00;1.00;;;;;;5033649;28;20270;-67
2021/10/30 01:18:09;;;;;;;0.30;0.20;;;11.90;1.00;;;;;;5033621;28;20185;-67
2021/10/30 01:20:35;;;;;;;0.30;0.10;;;11.80;1.00;;;;;;5033881;28;20174;-67
2021/10/30 01:23:01;;;;;;;0.30;0.20;;;11.70;2.10;;;;;;5033947;28;20486;-67
2021/10/30 01:25:28;;;;;;;0.30;0.20;;;11.80;24.70;;;;;;5033756;28;20638;-67
2021/10/30 01:27:55;;;;;;;0.30;0.30;;;11.70;39.10;;;;;;5033448;28;20584;-67
2021/10/30 01:30:22;;;;;;;0.30;0.20;;;11.60;62.00;;;;;;5033582;28;20599;-67
2021/10/30 01:32:53;;;;;;;0.30;0.20;;;11.60;77.70;;;;;;5033493;28;20636;-67
2021/10/30 01:35:34;;;;;;;0.57;0.57;;;11.60;96.80;;;;;;5033482;28;20209;-67
2021/10/30 01:38:02;;;;;;;0.30;0.20;;;11.50;99.90;;;;;;5032411;28;20181;-67
2021/10/30 01:40:28;;;;;;;0.30;0.20;;;11.50;99.90;;;;;;5033558;28;20247;-67
2021/10/30 01:43:00;;;;;;;0.30;0.10;;;11.50;99.90;;;;;;5033368;28;20185;-67
2021/10/30 01:45:27;;;;;;;0.30;0.20;;;11.60;99.90;;;;;;5033435;28;20181;-67
2021/10/30 01:47:53;;;;;;;0.30;0.10;;;11.60;93.60;;;;;;5033372;28;20173;-67
2021/10/30 01:50:19;;;;;;;0.30;0.20;;;11.60;87.20;;;;;;5033447;28;20626;-67
2021/10/30 01:52:45;;;;;;;0.30;0.20;;;11.50;85.70;;;;;;5033459;28;20507;-67
2021/10/30 01:55:12;;;;;;;0.30;0.20;;;11.50;99.90;;;;;;5032351;28;20220;-67
2021/10/30 01:57:38;;;;;;;0.30;0.10;;;11.40;99.90;;;;;;5032193;28;20177;-67
2021/10/30 02:00:07;;;;;;;0.30;0.20;;;11.40;99.90;;;;;;5033326;28;20185;-67
2021/10/30 02:02:33;;;;;;;0.30;0.20;;;11.50;99.90;;;;;;5033280;28;20736;-68
2021/10/30 02:04:59;;;;;;;0.30;0.20;;;11.40;99.90;;;;;;5032049;28;20188;-68
2021/10/30 02:07:25;;;;;;;0.30;0.10;;;11.30;99.90;;;;;;5033181;28;20455;-68
2021/10/30 02:09:50;;;;;;;0.30;0.20;;;11.20;99.90;;;;;;5032794;28;20611;-68
2021/10/30 02:12:16;;;;;;;0.30;0.20;;;11.20;99.90;;;;;;5033028;28;20196;-68
2021/10/30 02:14:42;;;;;;;0.30;0.20;;;11.10;99.90;;;;;;5032016;28;20275;-68
2021/10/30 02:17:07;;;;;;;0.30;0.20;;;11.10;99.90;;;;;;5033192;28;20682;-67
2021/10/30 02:19:33;;;;;;;0.30;0.20;;;11.10;99.90;;;;;;5036344;28;20540;-67
2021/10/30 02:21:58;;;;;;;0.30;0.20;;;11.10;99.90;;;;;;5036798;28;20602;-67
2021/10/30 02:24:24;;;;;;;0.73;0.73;;;11.00;99.90;;;;;;5036803;28;20204;-67
2021/10/30 02:26:50;;;;;;;0.30;0.10;;;10.90;99.90;;;;;;5036663;28;20189;-67
2021/10/30 02:29:16;;;;;;;0.30;0.20;;;10.80;99.90;;;;;;5036545;28;20646;-67
2021/10/30 02:31:42;;;;;;;0.30;0.20;;;10.90;99.90;;;;;;5036786;28;20691;-67
2021/10/30 02:34:07;;;;;;;0.53;0.53;;;11.00;99.90;;;;;;5036582;28;20268;-67
2021/10/30 02:36:33;;;;;;;0.30;0.20;;;11.00;99.90;;;;;;5035674;28;20186;-67
2021/10/30 02:38:59;;;;;;;0.30;0.10;;;11.00;99.90;;;;;;5036418;28;20209;-67
2021/10/30 02:41:25;;;;;;;0.30;0.20;;;11.10;99.90;;;;;;5036622;28;20181;-67
2021/10/30 02:43:51;;;;;;;0.30;0.20;;;11.00;99.90;;;;;;5036527;28;20432;-67
2021/10/30 02:46:16;;;;;;;0.73;0.73;;;11.10;99.90;;;;;;5036655;28;20181;-67
2021/10/30 02:48:42;;;;;;;0.30;0.20;;;11.10;99.90;;;;;;5036261;28;20265;-67
2021/10/30 02:51:07;;;;;;;0.30;0.20;;;11.00;99.90;;;;;;5035436;28;20181;-67
2021/10/30 02:53:33;;;;;;;0.30;0.17;;;11.00;99.90;;;;;;5035565;28;20213;-67
2021/10/30 02:55:59;;;;;;;0.30;0.20;;;10.90;99.90;;;;;;5036252;28;20202;-67
2021/10/30 02:58:24;;;;;;;0.53;0.53;;;10.90;99.90;;;;;;5036033;28;20236;-67
2021/10/30 03:00:50;;;;;;;0.30;0.20;;;10.80;99.90;;;;;;5035310;28;20173;-67
2021/10/30 03:03:15;;;;;;;0.30;0.20;;;10.80;99.90;;;;;;5036172;28;20177;-67
2021/10/30 03:05:41;;;;;;;0.30;0.20;;;10.70;99.90;;;;;;5036129;28;20177;-67
2021/10/30 03:08:07;;;;;;;0.30;0.20;;;10.80;99.90;;;;;;5035977;28;20533;-67
2021/10/30 03:10:33;;;;;;;0.50;0.40;;;10.80;99.90;;;;;;5034977;28;20188;-67
2021/10/30 03:12:58;;;;;;;1.90;0.87;;;10.80;99.90;;;;;;5035904;28;20507;-67
2021/10/30 03:15:24;;;;;;;0.30;0.20;;;10.80;99.90;;;;;;5035941;28;20209;-67
2021/10/30 03:17:50;;;;;;;0.30;0.20;;;10.90;99.90;;;;;;5035832;28;20173;-67
2021/10/30 03:20:15;;;;;;;0.30;0.20;;;10.90;99.90;;;;;;5035734;28;20255;-67
2021/10/30 03:22:41;;;;;;;0.30;0.20;;;11.00;99.90;;;;;;5035905;28;20621;-67
2021/10/30 03:25:07;;;;;;;0.30;0.20;;;10.90;99.90;;;;;;5035581;28;20213;-67
2021/10/30 03:27:33;;;;;;;0.30;0.20;;;10.90;99.90;;;;;;5035690;28;20545;-67
2021/10/30 03:29:58;;;;;;;0.30;0.20;;;11.00;99.90;;;;;;5034200;28;20502;-67
2021/10/30 03:32:24;;;;;;;0.30;0.20;;;10.90;99.90;;;;;;5035650;28;20208;-67
2021/10/30 03:34:49;;;;;;;0.77;0.70;;;10.80;99.90;;;;;;5035720;28;20641;-67
2021/10/30 03:37:15;;;;;;;1.60;1.03;;;10.70;99.90;;;;;;5035559;28;20182;-67
2021/10/30 03:39:41;;;;;;;0.30;0.10;;;10.70;99.90;;;;;;5035355;28;20170;-67
2021/10/30 03:42:07;;;;;;;0.30;0.20;;;10.50;99.90;;;;;;5035485;28;20205;-67
2021/10/30 03:44:34;;;;;;;0.40;0.37;;;10.40;99.90;;;;;;5034977;28;20200;-67
2021/10/30 03:46:59;;;;;;;1.00;0.82;;;10.30;99.90;;;;;;5035427;28;20464;-67
2021/10/30 03:49:25;;;;;;;0.30;0.20;;;10.20;99.90;;;;;;5035148;28;20521;-67
2021/10/30 03:51:51;;;;;;;0.30;0.20;;;10.10;99.90;;;;;;5035714;28;20216;-67
2021/10/30 03:54:16;;;;;;;0.30;0.20;;;10.10;99.90;;;;;;5034036;28;20645;-67
2021/10/30 03:56:42;;;;;;;0.30;0.30;;;10.10;99.90;;;;;;5035181;28;20431;-67
2021/10/30 03:59:08;;;;;;;0.40;0.20;;;10.00;99.90;;;;;;5033859;28;20185;-67
2021/10/30 04:01:33;;;;;;;0.40;0.40;;;9.90;99.90;;;;;;5034049;28;20199;-67
2021/10/30 04:03:59;;;;;;;0.30;0.20;;;9.90;99.90;;;;;;5035063;28;20188;-67
2021/10/30 04:06:24;;;;;;;0.30;0.20;;;9.90;99.90;;;;;;5033941;28;20188;-67
2021/10/30 04:08:50;;;;;;;0.30;0.20;;;9.90;99.90;;;;;;5033651;28;20195;-67
2021/10/30 04:11:16;;;;;;;0.60;0.60;;;9.90;99.90;;;;;;5033915;28;20606;-67
2021/10/30 04:13:41;;;;;;;0.30;0.20;;;9.80;99.90;;;;;;5034720;28;20612;-67
2021/10/30 04:16:07;;;;;;;0.30;0.30;;;9.80;99.90;;;;;;5034678;28;20220;-67
2021/10/30 04:18:32;;;;;;;0.30;0.20;;;9.80;99.90;;;;;;5034608;28;20235;-67
2021/10/30 04:20:58;;;;;;;0.37;0.37;;;9.80;99.90;;;;;;5033751;28;20173;-67
2021/10/30 04:23:23;;;;;;;0.40;0.30;;;9.80;99.90;;;;;;5034596;28;20217;-67
2021/10/30 04:25:49;;;;;;;0.87;0.87;;;9.80;99.90;;;;;;5034475;28;20213;-67
2021/10/30 04:28:15;;;;;;;0.60;0.30;;;9.70;99.90;;;;;;5034575;28;20676;-67
2021/10/30 04:30:40;;;;;;;0.93;0.93;;;9.80;99.90;;;;;;5034474;28;20185;-67
2021/10/30 04:33:07;;;;;;;2.27;1.17;;;9.90;99.90;;;;;;5034382;28;20189;-67
2021/10/30 04:35:32;;;;;;;0.30;0.20;;;9.90;99.90;;;;;;5034412;28;20193;-67
2021/10/30 04:37:58;;;;;;;0.30;0.20;;;9.90;99.90;;;;;;5033646;28;20188;-67
2021/10/30 04:40:23;;;;;;;0.60;0.60;;;10.00;99.90;;;;;;5034018;28;20173;-67
2021/10/30 04:42:49;;;;;;;2.07;1.27;;;9.90;99.90;;;;;;5033721;28;20201;-67
2021/10/30 04:45:15;;;;;;;0.30;0.20;;;9.80;99.90;;;;;;5034263;28;20198;-67
2021/10/30 04:47:40;;;;;;;1.33;1.23;;;9.70;99.90;;;;;;5034192;28;20189;-67
2021/10/30 04:50:06;;;;;;;0.73;0.73;;;9.70;99.90;;;;;;5033891;28;20217;-67
2021/10/30 04:52:32;;;;;;;2.30;2.20;;;9.70;99.90;;;;;;5034012;28;20640;-67
2021/10/30 04:54:57;;;;;;;0.30;0.20;;;9.80;99.90;;;;;;5033995;28;20476;-67
2021/10/30 04:57:23;;;;;;;0.30;0.20;;;9.80;99.90;;;;;;5034054;28;20428;-67
2021/10/30 04:59:48;;;;;;;0.30;0.20;;;9.70;99.90;;;;;;5033964;28;20208;-67
2021/10/30 05:02:14;;;;;;;0.70;0.70;;;9.70;99.90;;;;;;5034001;28;20201;-67
2021/10/30 05:04:40;;;;;;;0.20;0.20;;;9.70;99.90;;;;;;5033778;28;20523;-67
2021/10/30 05:07:05;;;;;;;0.30;0.20;;;9.80;99.90;;;;;;5033333;28;20573;-67
2021/10/30 05:09:31;;;;;;;0.30;0.23;;;9.80;99.90;;;;;;5033081;28;20554;-68
2021/10/30 05:11:57;;;;;;;0.30;0.30;;;9.80;99.90;;;;;;5033461;28;20617;-67
2021/10/30 05:14:22;;;;;;;0.30;0.20;;;9.90;99.90;;;;;;5033349;28;20260;-67
2021/10/30 05:16:49;;;;;;;0.20;0.10;;;9.90;99.90;;;;;;5016491;28;20618;-65
2021/10/30 05:19:15;;;;;;;0.20;0.17;;;10.00;99.90;;;;;;5033543;28;20193;-67
2021/10/30 05:21:41;;;;;;;0.20;0.10;;;10.10;99.90;;;;;;5033874;28;20292;-67
2021/10/30 05:24:07;;;;;;;0.20;0.20;;;10.20;99.90;;;;;;5033974;28;20256;-67
2021/10/30 05:26:33;;;;;;;0.90;0.60;;;10.20;99.90;;;;;;5016367;28;20434;-67
2021/10/30 05:28:59;;;;;;;0.30;0.20;;;10.10;99.90;;;;;;5033647;28;20188;-67
2021/10/30 05:31:24;;;;;;;0.20;0.20;;;10.00;99.90;;;;;;5033881;28;20181;-67
2021/10/30 05:33:50;;;;;;;0.20;0.20;;;10.10;99.90;;;;;;5016257;28;20495;-67
2021/10/30 05:36:17;;;;;;;0.30;0.20;;;10.00;99.90;;;;;;5033497;28;20707;-67
2021/10/30 05:38:48;;;;;;;2.25;1.23;;;10.00;99.90;;;;;;5016383;28;20455;-67
2021/10/30 05:41:20;;;;;;;0.50;0.50;;;9.90;99.90;;;;;;5016468;28;20207;-67
2021/10/30 05:43:47;;;;;;;0.30;0.30;;;9.90;99.90;;;;;;5033355;28;20238;-67
2021/10/30 05:46:13;;;;;;;1.43;0.87;;;9.90;99.90;;;;;;5016199;28;20571;-67
2021/10/30 05:48:39;;;;;;;0.40;0.30;;;9.80;99.90;;;;;;5033250;28;20563;-67
2021/10/30 05:51:07;;;;;;;1.20;1.13;;;9.60;99.90;;;;;;5033370;28;20558;-68
2021/10/30 05:53:33;;;;;;;0.50;0.45;;;9.50;99.90;;;;;;5026251;28;20276;-68
2021/10/30 05:55:58;;;;;;;0.30;0.30;;;9.50;99.90;;;;;;5037654;28;20305;-66
2021/10/30 05:58:24;;;;;;;0.30;0.20;;;9.40;99.90;;;;;;5031828;28;20566;-66
2021/10/30 06:00:50;;;;;;;3.33;3.03;;;9.50;99.90;;;;;;5037858;28;20606;-67
2021/10/30 06:03:15;;;;;;;0.30;0.20;;;9.50;99.90;;;;;;5037639;28;20215;-68
2021/10/30 06:05:41;;;;;;;0.30;0.27;;;9.40;99.90;;;;;;5035232;28;20458;-66
2021/10/30 06:08:06;;;;;;;0.90;0.73;;;9.30;99.90;;;;;;5037202;28;20185;-66
2021/10/30 06:10:34;;;;;;;1.13;1.03;;;9.30;99.90;;;;;;5037463;28;20204;-66
2021/10/30 06:12:59;;;;;;;0.30;0.30;;;9.30;99.90;;;;;;5028888;28;20193;-65
2021/10/30 06:15:25;;;;;;;0.20;0.20;;;9.30;99.90;;;;;;5036988;28;20209;-65
2021/10/30 06:17:51;;;;;;;0.70;0.70;;;9.30;99.90;;;;;;5036515;28;20196;-66
2021/10/30 06:20:16;;;;;;;0.30;0.30;;;9.30;99.90;;;;;;5036711;28;20195;-67
2021/10/30 06:22:42;;;;;;;0.50;0.50;;;9.30;99.90;;;;;;5036891;28;20187;-66
2021/10/30 06:25:13;;;;;;;0.40;0.40;;;9.30;99.90;;;;;;5036969;28;20178;-69
2021/10/30 06:27:40;;;;;;;0.65;0.65;;;9.30;99.90;;;;;;5036966;28;20428;-68
2021/10/30 06:30:07;;;;;;;1.52;0.93;;;9.40;99.90;;;;;;5030795;28;20189;-68
2021/10/30 06:32:33;;;;;;;1.38;1.02;;;9.40;99.90;;;;;;5033215;28;20207;-68
2021/10/30 06:34:59;;;;;;;1.17;1.07;;;9.40;99.90;;;;;;5019003;28;20220;-68
2021/10/30 06:37:24;;;;;;;0.20;0.20;;;9.30;99.90;;;;;;5030868;28;20562;-68
2021/10/30 06:39:50;;;;;;;0.40;0.40;;;9.40;99.90;;;;;;5036259;28;20189;-68
2021/10/30 06:42:15;;;;;;;1.13;1.13;;;9.60;99.90;;;;;;5036950;28;20622;-68
2021/10/30 06:44:44;;;;;;;0.30;0.30;;;9.80;99.90;;;;;;5036554;28;20599;-68
2021/10/30 06:47:10;;;;;;;0.63;0.63;;;9.90;99.90;;;;;;5028758;28;20197;-66
2021/10/30 06:49:35;;;;;;;0.93;0.83;;;9.70;99.90;;;;;;5026266;28;20197;-66
2021/10/30 06:52:03;;;;;;;0.30;0.20;;;9.80;99.90;;;;;;5035982;28;20191;-65
2021/10/30 06:54:28;;;;;;;0.30;0.20;;;9.90;99.90;;;;;;5035963;28;20304;-68
2021/10/30 06:56:54;;;;;;;0.30;0.20;;;9.90;99.90;;;;;;5036028;28;20205;-67
2021/10/30 06:59:20;;;;;;;0.20;0.20;;;9.90;99.90;;;;;;5035969;28;20182;-66
2021/10/30 07:01:45;;;;;;;0.20;0.20;;;9.90;99.90;;;;;;5035772;28;20268;-66
2021/10/30 07:04:12;;;;;;;0.60;0.60;;;9.90;99.90;;;;;;5035943;28;20185;-67
2021/10/30 07:06:38;;;;;;;0.30;0.20;;;10.00;99.90;;;;;;5035948;28;20181;-66
2021/10/30 07:09:03;;;;;;;0.20;0.20;;;10.10;99.90;;;;;;5035768;28;20238;-66
2021/10/30 07:11:29;;;;;;;0.73;0.67;;;10.30;99.90;;;;;;5035906;28;20264;-67
2021/10/30 07:13:55;;;;;;;0.33;0.30;;;10.30;99.90;;;;;;5018454;28;20444;-66
2021/10/30 07:16:21;;;;;;;0.60;0.57;;;10.20;99.90;;;;;;5035722;28;20219;-68
2021/10/30 07:18:46;;;;;;;0.70;0.70;;;10.00;99.90;;;;;;5035262;28;20177;-68
2021/10/30 07:21:13;;;;;;;0.27;0.23;;;10.00;99.90;;;;;;5035640;28;20753;-68
2021/10/30 07:23:39;;;;;;;0.30;0.20;;;9.90;99.90;;;;;;5035713;28;20212;-67
2021/10/30 07:26:05;;;;;;;0.30;0.20;;;9.80;99.90;;;;;;5035529;28;20213;-67
2021/10/30 07:28:31;;;;;;;0.65;0.55;;;9.80;99.90;;;;;;5035282;28;20636;-67
2021/10/30 07:30:57;;;;;;;5.63;5.27;;;9.90;99.90;;;;;;5035361;28;20648;-67
2021/10/30 07:33:23;;;;;;;1.23;1.13;;;9.90;99.90;;;;;;5035371;28;20468;-67
2021/10/30 07:35:48;;;;;;;0.30;0.20;;;10.00;99.90;;;;;;5035025;28;20217;-69
2021/10/30 07:38:14;;;;;;;2.40;2.30;;;10.00;99.90;;;;;;5017397;28;20192;-68
2021/10/30 07:40:40;;;;;;;0.30;0.30;;;10.00;99.90;;;;;;5035120;28;20185;-68
2021/10/30 07:43:06;;;;;;;1.13;1.03;;;9.90;99.90;;;;;;5035212;28;20208;-68
2021/10/30 07:45:31;;;;;;;1.37;1.03;;;9.90;99.90;;;;;;5035056;28;20177;-69
2021/10/30 07:47:58;;;;;;;0.30;0.20;;;9.90;99.90;;;;;;5035089;28;20190;-68
2021/10/30 07:50:25;;;;;;;0.50;0.47;;;10.00;99.90;;;;;;5035059;28;20181;-69
2021/10/30 07:52:51;;;;;;;1.88;1.20;;;10.20;99.90;;;;;;5035091;28;20618;-69
2021/10/30 07:55:17;;;;;;;2.47;1.35;;;10.30;99.90;;;;;;5034926;28;20209;-68
2021/10/30 07:57:42;;;;;;;0.30;0.20;;;10.30;99.90;;;;;;5034851;28;20185;-68
2021/10/30 08:00:09;;;;;;;2.07;1.97;;;10.50;99.90;;;;;;5034824;28;20519;-68
2021/10/30 08:02:35;;;;;;;1.85;1.75;;;10.70;99.90;;;;;;5034960;28;20188;-68
2021/10/30 08:05:01;;;;;;;0.68;0.68;;;10.80;99.90;;;;;;5034985;28;20173;-68
2021/10/30 08:07:27;;;;;;;0.30;0.20;;;11.00;95.00;;;;;;5034882;28;20550;-68
2021/10/30 08:09:52;;;;;;;1.07;1.03;;;11.20;31.40;;;;;;5035196;28;20272;-68
2021/10/30 08:12:18;;;;;;;1.47;0.30;;;11.30;1.00;;;;;;5035037;28;20178;-68
2021/10/30 08:14:44;;;;;;;0.30;0.20;;;11.40;1.00;;;;;;5016784;28;20221;-69
2021/10/30 08:17:10;;;;;;;0.57;0.47;;;11.60;1.00;;;;;;5034007;28;20178;-67
2021/10/30 08:19:35;;;;;;;3.93;3.37;;;11.70;1.00;;;;;;5034637;28;20460;-68
2021/10/30 08:22:03;;;;;;;0.30;0.10;;;11.60;1.00;;;;;;5034817;28;20280;-68
2021/10/30 08:24:29;;;;;;;0.30;0.20;;;11.70;1.00;;;;;;5034428;28;20579;-69
2021/10/30 08:26:54;;;;;;;0.30;0.10;;;11.90;1.00;;;;;;5016968;28;20273;-68
2021/10/30 08:29:20;;;;;;;0.30;0.10;;;12.00;1.00;;;;;;5016855;28;20424;-69
2021/10/30 08:31:47;;;;;;;4.33;4.13;;;12.20;1.00;;;;;;5034384;28;20269;-69
2021/10/30 08:34:13;;;;;;;0.63;0.63;;;12.50;1.00;;;;;;5034320;28;20432;-68
2021/10/30 08:36:38;;;;;;;0.60;0.30;;;12.80;99.90;;;;;;5034320;28;20184;-68
2021/10/30 08:39:04;;;;;;;0.57;0.30;;;13.00;99.90;;;;;;5033922;28;20208;-68
2021/10/30 08:41:31;;;;;;;0.40;0.33;;;13.20;99.90;;;;;;5034404;28;20184;-68
2021/10/30 08:43:56;;;;;;;0.30;0.20;;;13.40;1.00;;;;;;5016437;28;20181;-67
2021/10/30 08:46:23;;;;;;;0.30;0.20;;;13.50;1.00;;;;;;5033964;28;20240;-67
2021/10/30 08:48:51;;;;;;;0.40;0.40;;;13.70;1.00;;;;;;5033848;28;20196;-68
2021/10/30 08:51:16;;;;;;;0.30;0.20;;;13.90;99.90;;;;;;5033914;28;20188;-68
2021/10/30 08:53:43;;;;;;;0.40;0.33;;;13.70;99.90;;;;;;5034423;28;20520;-69
2021/10/30 08:56:10;;;;;;;5.00;1.77;;;13.50;1.00;;;;;;5033963;28;20205;-69
2021/10/30 08:58:36;;;;;;;0.85;0.73;;;13.40;14.90;;;;;;5036930;28;20181;-67
2021/10/30 09:01:05;;;;;;;0.57;0.40;;;13.30;99.90;;;;;;5035044;28;20170;-67
2021/10/30 09:03:31;;;;;;;0.40;0.30;;;13.30;99.90;;;;;;5016703;28;20178;-67
2021/10/30 09:05:59;;;;;;;0.30;0.20;;;13.30;99.90;;;;;;5016399;28;20189;-67
2021/10/30 09:08:26;;;;;;;1.75;1.65;;;13.20;99.90;;;;;;5015521;28;20193;-68
2021/10/30 09:11:01;;;;;;;0.30;0.20;;;13.30;99.90;;;;;;5027058;28;20193;-67
2021/10/30 09:13:29;;;;;;;0.30;0.20;;;13.30;99.90;;;;;;5033051;28;20201;-67
2021/10/30 09:15:55;;;;;;;0.30;0.20;;;13.60;99.90;;;;;;5033155;28;20208;-68
2021/10/30 09:18:34;;;;;;;2.17;1.98;;;13.80;1.00;;;;;;5019138;28;20178;-68
2021/10/30 09:21:07;;;;;;;0.40;0.40;;;13.70;1.00;;;;;;5033893;28;20181;-67
2021/10/30 09:23:36;;;;;;;0.40;0.30;;;13.50;99.90;;;;;;5033636;28;20188;-68
2021/10/30 09:26:05;;;;;;;0.30;0.20;;;13.70;99.90;;;;;;5033554;28;20188;-69
2021/10/30 09:28:37;;;;;;;3.83;3.53;;;13.90;1.00;;;;;;5032892;28;20242;-67
2021/10/30 09:31:06;;;;;;;0.82;0.50;;;13.70;1.00;;;;;;5033144;28;20186;-68
2021/10/30 09:33:36;;;;;;;1.45;1.35;;;13.50;99.90;;;;;;5033176;28;20173;-67
2021/10/30 09:36:10;;;;;;;2.05;1.95;;;13.20;99.90;;;;;;5032913;28;20205;-68
2021/10/30 09:38:39;;;;;;;0.35;0.20;;;13.20;99.90;;;;;;5031995;28;20530;-68
2021/10/30 09:41:20;;;;;;;0.30;0.20;;;13.50;99.90;;;;;;5033241;28;20208;-65
2021/10/30 09:43:54;;;;;;;0.75;0.75;;;13.50;99.90;;;;;;5030477;28;20533;-68
2021/10/30 09:46:20;;;;;;;0.60;0.57;;;13.50;99.90;;;;;;5033740;28;20542;-68
2021/10/30 09:48:46;;;;;;;1.05;0.95;;;13.40;99.90;;;;;;5031912;28;20271;-67
2021/10/30 09:51:27;;;;;;;0.40;0.30;;;13.40;99.90;;;;;;5032849;28;20314;-67
2021/10/30 09:53:53;;;;;;;0.30;0.20;;;13.50;99.90;;;;;;5033131;28;20173;-67
2021/10/30 09:56:18;;;;;;;0.30;0.20;;;13.70;99.90;;;;;;5031894;28;20374;-68
2021/10/30 09:58:46;;;;;;;0.50;0.47;;;14.00;4.30;;;;;;5032410;28;20637;-68
2021/10/30 10:01:14;;;;;;;0.40;0.30;;;14.20;1.00;;;;;;5033139;28;20260;-67
2021/10/30 10:03:44;;;;;;;0.65;0.65;;;14.20;1.00;;;;;;5032981;28;20303;-68
2021/10/30 10:06:14;;;;;;;1.15;1.05;;;14.00;99.90;;;;;;5032864;28;20630;-68
2021/10/30 10:08:44;;;;;;;1.13;1.02;;;13.90;1.00;;;;;;5032589;28;20173;-68
2021/10/30 10:11:15;;;;;;;0.60;0.30;;;13.90;1.00;;;;;;5032505;28;20192;-68
2021/10/30 10:13:43;;;;;;;0.70;0.30;;;14.00;1.00;;;;;;5015222;28;20289;-69
2021/10/30 10:16:16;;;;;;;0.40;0.20;;;14.10;1.00;;;;;;5032822;28;20271;-69
2021/10/30 10:18:43;;;;;;;1.33;1.20;;;14.40;1.00;;;;;;5032479;28;20633;-70
2021/10/30 10:21:13;;;;;;;1.40;1.05;;;14.40;99.90;;;;;;5032660;28;20255;-69
2021/10/30 10:23:43;;;;;;;0.93;0.93;;;14.60;99.90;;;;;;5032223;28;20178;-71
2021/10/30 10:26:09;;;;;;;3.20;3.03;;;14.80;99.90;;;;;;5015243;28;20196;-69
2021/10/30 10:28:36;;;;;;;0.40;0.32;;;15.00;99.90;;;;;;5014891;28;20182;-67
2021/10/30 10:31:25;;;;;;;0.50;0.30;;;15.20;14.70;;;;;;5015018;28;20293;-67
2021/10/30 10:34:16;;;;;;;7.32;2.05;;;15.20;1.00;;;;;;5015137;28;20185;-70
2021/10/30 10:36:42;;;;;;;1.05;0.73;;;15.20;1.00;;;;;;5032600;28;20567;-70
2021/10/30 10:39:14;;;;;;;1.00;0.80;;;15.10;1.00;;;;;;5033866;28;20257;-70
2021/10/30 10:41:49;;;;;;;0.40;0.10;;;14.90;1.00;;;;;;5036156;28;20665;-70
2021/10/30 10:44:40;;;;;;;0.40;0.10;;;15.00;83.50;;;;;;5036122;28;20191;-69
2021/10/30 10:47:07;;;;;;;0.60;0.60;;;14.90;1.00;;;;;;5035884;28;20235;-69
2021/10/30 10:49:37;;;;;;;1.52;0.85;;;15.10;1.00;;;;;;5035703;28;20174;-69
2021/10/30 10:52:18;;;;;;;1.50;1.40;;;15.10;99.90;;;;;;5035950;28;20527;-69
2021/10/30 10:54:55;;;;;;;0.40;0.20;;;15.10;1.00;;;;;;5035674;28;20626;-69
2021/10/30 10:57:25;;;;;;;0.47;0.30;;;14.90;1.00;;;;;;5035261;28;20274;-69
2021/10/30 10:59:58;;;;;;;1.40;1.10;;;14.80;25.80;;;;;;5017923;28;20185;-69
2021/10/30 11:02:29;;;;;;;0.40;0.25;;;14.90;1.00;;;;;;5035991;28;20185;-69
2021/10/30 11:05:07;;;;;;;0.40;0.10;;;15.00;1.00;;;;;;5036724;28;20264;-67
2021/10/30 11:07:43;;;;;;;0.80;0.55;;;15.20;1.00;;;;;;5036263;28;20185;-69
2021/10/30 11:10:11;;;;;;;0.40;0.20;;;15.30;1.00;;;;;;5035439;28;20260;-67
2021/10/30 11:12:37;;;;;;;1.67;0.77;;;15.40;99.90;;;;;;5035375;28;20189;-70
2021/10/30 11:15:13;;;;;;;1.83;1.48;;;15.50;1.00;;;;;;5035326;28;20550;-68
2021/10/30 11:17:51;;;;;;;0.88;0.88;;;15.50;1.00;;;;;;5034423;28;20212;-69
2021/10/30 11:20:19;;;;;;;1.43;0.73;;;15.40;1.00;;;;;;5032739;28;20243;-68
2021/10/30 11:22:56;;;;;;;1.95;1.05;;;15.30;99.90;;;;;;5016601;28;20509;-68
2021/10/30 11:25:22;;;;;;;3.22;2.17;;;15.10;99.90;;;;;;5034070;28;20673;-68
2021/10/30 11:27:52;;;;;;;6.20;3.13;;;15.20;99.90;;;;;;5016692;28;20189;-68
2021/10/30 11:30:40;;;;;;;1.20;1.10;;;15.20;99.90;;;;;;5013915;28;20186;-69
2021/10/30 11:33:25;;;;;;;0.40;0.20;;;15.30;1.00;;;;;;5015099;28;20645;-68
2021/10/30 11:35:58;;;;;;;2.92;1.15;;;15.30;1.00;;;;;;5033010;28;20201;-69
2021/10/30 11:38:25;;;;;;;3.40;2.80;;;15.30;1.00;;;;;;5014263;28;20181;-69
2021/10/30 11:40:56;;;;;;;3.33;2.90;;;15.20;99.90;;;;;;5015923;28;20178;-73
2021/10/30 11:43:28;;;;;;;4.40;4.22;;;15.10;1.00;;;;;;5013765;28;20196;-69
2021/10/30 11:45:59;;;;;;;1.98;1.67;;;15.00;1.00;;;;;;5034115;28;20205;-68
2021/10/30 11:49:00;;;;;;;0.40;0.30;;;15.00;60.60;;;;;;5034257;28;20296;-68
2021/10/30 11:51:31;;;;;;;6.93;2.08;;;15.00;99.90;;;;;;5028454;28;20288;-68
2021/10/30 11:53:58;;;;;;;0.90;0.73;;;15.00;1.00;;;;;;5014904;28;20648;-68
2021/10/30 11:56:26;;;;;;;1.10;1.10;;;15.00;99.90;;;;;;5016155;28;20555;-68
2021/10/30 11:58:56;;;;;;;2.00;1.80;;;14.90;99.90;;;;;;5033962;28;20264;-68
2021/10/30 12:01:33;;;;;;;1.40;0.70;;;15.00;99.90;;;;;;5020377;28;20306;-68
2021/10/30 12:04:06;;;;;;;2.70;2.50;;;15.00;99.90;;;;;;5032611;28;20551;-71
2021/10/30 12:06:48;;;;;;;0.40;0.20;;;15.10;99.90;;;;;;5034115;28;20635;-70
2021/10/30 12:09:28;;;;;;;0.75;0.60;;;15.20;99.90;;;;;;5039868;28;20173;-70
2021/10/30 12:12:00;;;;;;;1.33;1.17;;;15.20;1.00;;;;;;5033797;28;20185;-67
2021/10/30 12:14:31;;;;;;;1.25;0.85;;;15.00;1.00;;;;;;5031751;28;20253;-68
2021/10/30 12:17:03;;;;;;;3.53;1.67;;;15.10;1.00;;;;;;5034078;28;20209;-68
2021/10/30 12:19:32;;;;;;;1.20;1.10;;;15.20;1.00;;;;;;5016290;28;20177;-69
2021/10/30 12:22:06;;;;;;;2.00;1.77;;;15.20;1.00;;;;;;5033797;28;20177;-69
2021/10/30 12:24:33;;;;;;;5.95;0.98;;;15.00;1.00;;;;;;5016104;28;20193;-68
2021/10/30 12:27:03;;;;;;;1.70;1.10;;;14.90;1.00;;;;;;5015884;28;20204;-68
2021/10/30 12:29:40;;;;;;;1.08;1.02;;;14.90;1.00;;;;;;5015715;28;20201;-69
2021/10/30 12:32:08;;;;;;;1.30;1.20;;;15.00;1.00;;;;;;5016160;28;20199;-68
2021/10/30 12:34:57;;;;;;;0.40;0.20;;;14.90;1.00;;;;;;5033096;28;20212;-68
2021/10/30 12:37:28;;;;;;;1.15;0.82;;;15.00;1.00;;;;;;5031814;28;20181;-69
2021/10/30 12:40:12;;;;;;;0.50;0.43;;;14.90;1.00;;;;;;5033452;28;20169;-69
2021/10/30 12:42:39;;;;;;;1.45;1.40;;;14.90;1.00;;;;;;5013824;28;20236;-69
2021/10/30 12:45:05;;;;;;;2.45;1.60;;;14.90;1.00;;;;;;5016067;28;20186;-69
2021/10/30 12:47:32;;;;;;;0.85;0.73;;;14.80;1.00;;;;;;5016087;28;20255;-68
2021/10/30 12:50:07;;;;;;;2.55;2.42;;;15.00;1.00;;;;;;5033583;28;20182;-69
2021/10/30 12:52:43;;;;;;;0.40;0.30;;;15.00;99.90;;;;;;5015848;28;20177;-68
2021/10/30 12:55:16;;;;;;;0.40;0.20;;;14.70;1.00;;;;;;5034141;28;20193;-70